Impacts TAF Board
For situational awareness. Not to be used for flight planning purposes.
IDs:

KLBB - Lubbock Intl Arpt, TX, US

Issued at 1732 UTC 08 Aug 2020
Updated at 2155 UTC 08 Aug 2020
Potential Impact None Slight Moderate High
Time2153Z 08/22Z 08/23Z 09/00Z 09/01Z 09/02Z 09/03Z 09/04Z 09/05Z 09/06Z 09/07Z 09/08Z 09/09Z 09/10Z>>
Type OBS PRVL PRVL PRVL PRVL PRVL PRVL PRVL PRVL PRVL PRVL PRVL PRVL PRVL
VIS 10 >6 >6 >6 >6 >6 >6 >6 >6 >6 >6 >6 >6 >6
CIG -- -- 250 250 250 250 250 250 250 250 250 250 250 250
Cover FEW SCT BKN BKN BKN BKN BKN BKN BKN BKN BKN BKN BKN BKN
FltCat VFR VFR VFR VFR VFR VFR VFR VFR VFR VFR VFR VFR VFR VFR
WX -- -- -- -- -- -- -- -- -- -- -- -- -- --
WDir 140 200 170 170 170 170 170 170 170 170 170 170 170 170
WSpd 15 15 15 15 15 15 15 15 15 15 15 15 15 15
WGst 20 -- -- -- -- -- -- -- -- -- -- -- -- --
Raw TAF
KLBB 081732Z 0818/0918 20015KT P6SM FEW150 SCT250
  FM082300 17015KT P6SM FEW100 SCT150 BKN250


Raw METAR
KLBB 082153Z 14015G20KT 10SM FEW090 FEW250 36/13 A3007 RMK AO2 PK WND 17027/2125 SLP118 CB DSNT NW MOV E T03610128
KLBB 082053Z 17016KT 10SM FEW090 FEW250 36/13 A3008 RMK AO2 SLP122 TCU DSNT NW T03610133 58014
KLBB 081953Z 19013G19KT 10SM FEW250 35/14 A3009 RMK AO2 SLP129 T03500139
KLBB 081853Z 22011G16KT 10SM FEW250 34/16 A3011 RMK AO2 SLP135 T03390156

METAR Board
Radar Display
Forecast Discussion
For situational awareness. Not to be used for flight planning purposes.